Mobridge Municipal Airport
KMBG : now visible

Airfield :











YOU CAN JOIN US ON...

 
LOGIN :

Register | Disclaimer

   EN    FR    IT 

 









Legend :    VFR   Marginal VFR   IFR   Intensive IFR   Very Intensive IFR
Visi :
Ceiling :
>= 8 km
>= 3000ft
5 to 8 km
1000 to 3000 ft
1500m to 5 km
500 to 1000 ft
800 to 1500m
200 to 500 ft
< 800m
< 200 ft
Symbols :   Thunderstorms  Fog  Heavy snow  Heavy precipitations  Wind > 20 kt






- Airport Elevation : 1716 ft


KMBG - Mobridge Municipal

CURRENT METAR :
  • 210452Z AUTO 35003KT 10SM OVC050 M02/M06 A3025 RMK AO2 SLP261 T10171056

EXPIRED METARs :
  • 210352Z AUTO 33003KT 10SM SCT070 OVC080 M04/M07 A3025 RMK AO2 SLP264 T10391072
  • 210252Z AUTO 36004KT 10SM SCT080 M06/M10 A3024 RMK AO2 SLP263 60000 T10611100 53016

TAF KMBG
Valid from the 21 at 00:00 until the 22 at 00:00 UTC


202339Z 2100/2124 36017G25KT P6SM BKN060
FM210300 34009KT P6SM SCT100
FM211600 30014KT P6SM SCT060
KZMP FIR / North America



MET'MAP, your aeronautical weather chart ! - Copyright ORBIFLY December 2007 - Disclaimer

ORBIFLY MET'MAP TEAM :

Programming & Development : Alexandra Zaïnal
Concept & original design : Baudouin d'Aumeries
Assistance for programming : Marc-Olivier Méhu
Technical & hardware support : Manuel Goepfert

Contact : metmap@orbifly.com




SOURCES & CREDITS :

   NOAA       Earth
Advisory